Time;durP1;ratioP1;P1;durP2;ratioP2;P2;SDS_P1;SDS_P2;PMS_P1;PMS_P2;Temp;Humidity;BMP_temperature;BMP_pressure;BME280_temperature;BME280_humidity;BME280_pressure;Samples;Min_cycle;Max_cycle;Signal;HPM_P1;HPM_P2
2023/12/28 00:00:05;;;;;;;;;;;;;;;9.08;58.80;101281.75;5461695;32;35435;-72
2023/12/28 00:03:07;;;;;;;;;;;;;;;8.84;59.86;101285.69;5445593;32;34264;-72
2023/12/28 00:06:10;;;;;;;;;;;;;;;9.59;57.43;101281.59;5461874;32;34352;-71
2023/12/28 00:09:12;;;;;;;;;;;;;;;9.35;58.29;101277.72;5461951;32;34874;-73
2023/12/28 00:12:14;;;;;;;;;;;;;;;8.70;60.57;101279.81;5466136;32;34647;-70
2023/12/28 00:15:17;;;;;;;;;;;;;;;9.53;57.80;101281.72;5462286;32;34608;-71
2023/12/28 00:18:19;;;;;;;;;;;;;;;8.81;59.30;101288.34;5446601;32;34960;-73
2023/12/28 00:21:24;;;;;;;;;;;;;;;8.27;61.08;101290.94;5461190;32;36032;-71
2023/12/28 00:24:26;;;;;;;;;;;;;;;8.93;59.89;101284.63;5466182;32;35272;-74
2023/12/28 00:27:28;;;;;;;;;;;;;;;9.48;57.56;101296.72;5461757;32;34570;-69
2023/12/28 00:30:33;;;;;;;;;;;;;;;9.30;57.45;101297.06;5441444;32;37035;-69
2023/12/28 00:33:36;;;;;;;;;;;;;;;8.14;61.22;101311.22;5450387;32;34457;-69
2023/12/28 00:36:38;;;;;;;;;;;;;;;8.21;62.09;101318.97;5461302;32;34798;-69
2023/12/28 00:39:40;;;;;;;;;;;;;;;8.50;60.97;101303.75;5468929;32;34211;-71
2023/12/28 00:42:42;;;;;;;;;;;;;;;8.58;60.85;101296.59;5460930;32;34818;-71
2023/12/28 00:45:45;;;;;;;;;;;;;;;8.44;61.04;101295.06;5465455;32;34686;-70
2023/12/28 00:48:47;;;;;;;;;;;;;;;8.60;60.61;101300.06;5461752;32;35422;-72
2023/12/28 00:51:49;;;;;;;;;;;;;;;8.64;59.38;101293.88;5455766;32;34266;-69
2023/12/28 00:54:52;;;;;;;;;;;;;;;8.63;60.22;101301.75;5467661;32;34931;-72
2023/12/28 00:57:54;;;;;;;;;;;;;;;8.85;58.96;101294.41;5466227;32;35373;-72
2023/12/28 01:00:57;;;;;;;;;;;;;;;9.19;58.40;101302.50;5466275;32;34209;-70
2023/12/28 01:03:59;;;;;;;;;;;;;;;8.29;60.66;101317.09;5460986;32;34732;-70
2023/12/28 01:07:04;;;;;;;;;;;;;;;8.98;59.00;101311.66;5464680;32;35354;-73
2023/12/28 01:10:07;;;;;;;;;;;;;;;8.36;60.81;101318.78;5463533;32;37864;-70
2023/12/28 01:13:09;;;;;;;;;;;;;;;8.51;60.12;101315.94;5460551;32;35277;-70
2023/12/28 01:16:14;;;;;;;;;;;;;;;8.68;59.76;101313.03;5447596;32;34239;-73
2023/12/28 01:19:16;;;;;;;;;;;;;;;8.95;58.38;101311.69;5445312;32;35701;-69
2023/12/28 01:22:19;;;;;;;;;;;;;;;8.82;58.29;101308.44;5465620;32;35625;-74
2023/12/28 01:25:21;;;;;;;;;;;;;;;8.58;59.64;101309.72;5440473;32;35561;-72
2023/12/28 01:28:23;;;;;;;;;;;;;;;8.58;59.85;101303.59;5460243;32;34744;-70
2023/12/28 01:31:25;;;;;;;;;;;;;;;9.13;57.63;101300.88;5463916;32;34683;-72
2023/12/28 01:34:28;;;;;;;;;;;;;;;9.08;57.39;101294.87;5446971;32;34871;-72
2023/12/28 01:37:33;;;;;;;;;;;;;;;8.17;59.68;101297.19;5469774;32;34839;-71
2023/12/28 01:40:35;;;;;;;;;;;;;;;7.56;62.42;101304.13;5440150;32;35972;-70
2023/12/28 01:43:37;;;;;;;;;;;;;;;8.54;59.76;101300.16;5453667;32;34879;-68
2023/12/28 01:46:39;;;;;;;;;;;;;;;8.57;59.58;101286.16;5466670;32;34928;-70
2023/12/28 01:49:42;;;;;;;;;;;;;;;8.28;59.26;101286.56;5460524;32;34437;-72
2023/12/28 01:52:44;;;;;;;;;;;;;;;8.69;58.74;101280.69;5453999;32;34363;-70
2023/12/28 01:55:46;;;;;;;;;;;;;;;8.49;59.58;101293.25;5454310;32;34525;-72
2023/12/28 01:58:49;;;;;;;;;;;;;;;8.47;59.49;101274.09;5453554;32;35135;-72
2023/12/28 02:01:51;;;;;;;;;;;;;;;8.22;59.41;101265.72;5452531;32;34765;-72
2023/12/28 02:04:53;;;;;;;;;;;;;;;8.59;59.19;101261.66;5471565;32;35186;-69
2023/12/28 02:07:55;;;;;;;;;;;;;;;8.57;58.29;101268.69;5465795;32;34464;-69
2023/12/28 02:10:58;;;;;;;;;;;;;;;8.10;59.93;101262.38;5467267;32;34360;-69
2023/12/28 02:14:00;;;;;;;;;;;;;;;8.70;58.43;101258.00;5469635;32;35823;-69
2023/12/28 02:17:02;;;;;;;;;;;;;;;8.11;59.86;101261.53;5466011;32;34846;-71
2023/12/28 02:20:07;;;;;;;;;;;;;;;8.08;60.19;101265.94;5450163;32;36191;-69
2023/12/28 02:23:09;;;;;;;;;;;;;;;8.70;58.27;101261.47;5461984;32;34630;-73
2023/12/28 02:26:12;;;;;;;;;;;;;;;8.93;56.96;101258.41;5470830;32;35443;-70
2023/12/28 02:29:14;;;;;;;;;;;;;;;8.49;58.07;101254.81;5439822;32;830035;-71
2023/12/28 02:32:16;;;;;;;;;;;;;;;7.97;60.30;101250.37;5449844;32;35252;-69
2023/12/28 02:35:29;;;;;;;;;;;;;;;8.38;58.87;101255.00;5470852;32;35488;-71
2023/12/28 02:38:32;;;;;;;;;;;;;;;8.58;58.20;101245.97;5472828;32;34793;-69
2023/12/28 02:41:34;;;;;;;;;;;;;;;8.62;58.02;101237.13;5470968;32;34650;-69
2023/12/28 02:44:36;;;;;;;;;;;;;;;7.72;60.34;101233.28;5444949;32;34790;-70
2023/12/28 02:47:38;;;;;;;;;;;;;;;7.48;61.57;101232.75;5462295;32;34604;-72
2023/12/28 02:50:41;;;;;;;;;;;;;;;8.05;60.71;101229.31;5444706;32;34693;-70
2023/12/28 02:53:43;;;;;;;;;;;;;;;8.24;59.96;101229.87;5460631;32;34979;-72
2023/12/28 02:56:45;;;;;;;;;;;;;;;8.31;59.39;101227.16;5475890;32;34670;-72
2023/12/28 02:59:47;;;;;;;;;;;;;;;7.75;60.60;101222.78;5462312;32;35137;-70
2023/12/28 03:02:49;;;;;;;;;;;;;;;7.62;61.15;101227.31;5466959;32;34835;-69
2023/12/28 03:05:52;;;;;;;;;;;;;;;7.73;61.43;101224.53;5462482;32;35101;-71
2023/12/28 03:08:54;;;;;;;;;;;;;;;7.59;61.54;101229.97;5465410;32;34992;-70
2023/12/28 03:11:56;;;;;;;;;;;;;;;7.51;61.51;101227.47;5463400;32;33834;-70
2023/12/28 03:14:58;;;;;;;;;;;;;;;7.34;62.29;101224.19;5462214;32;34732;-71
2023/12/28 03:18:00;;;;;;;;;;;;;;;7.33;63.02;101218.09;5466554;32;35690;-69
2023/12/28 03:21:04;;;;;;;;;;;;;;;8.06;60.15;101207.50;5462526;32;34772;-70
2023/12/28 03:24:06;;;;;;;;;;;;;;;8.38;59.36;101214.88;5466011;32;35062;-70
2023/12/28 03:27:08;;;;;;;;;;;;;;;8.51;58.70;101211.12;5447191;32;34618;-69
2023/12/28 03:30:10;;;;;;;;;;;;;;;8.05;59.46;101209.25;5464756;32;35536;-70
2023/12/28 03:33:13;;;;;;;;;;;;;;;8.26;59.36;101201.94;5449058;32;34491;-70
2023/12/28 03:36:19;;;;;;;;;;;;;;;7.72;61.48;101194.88;5447505;32;34856;-70
2023/12/28 03:39:21;;;;;;;;;;;;;;;7.34;61.71;101187.56;5468393;32;35404;-70
2023/12/28 03:42:23;;;;;;;;;;;;;;;7.93;60.62;101198.09;5447432;32;35034;-73
2023/12/28 03:45:26;;;;;;;;;;;;;;;8.29;59.70;101194.00;5466894;32;34173;-70
2023/12/28 03:48:28;;;;;;;;;;;;;;;7.43;61.25;101195.31;5461205;32;35426;-72
2023/12/28 03:51:30;;;;;;;;;;;;;;;7.73;60.79;101191.41;5446820;32;35434;-72
2023/12/28 03:54:33;;;;;;;;;;;;;;;7.98;60.28;101181.41;5448358;32;35496;-71
2023/12/28 03:57:35;;;;;;;;;;;;;;;8.15;59.90;101173.28;5461880;32;35341;-69
2023/12/28 04:00:37;;;;;;;;;;;;;;;8.32;58.67;101170.41;5446283;32;34983;-71
2023/12/28 04:03:39;;;;;;;;;;;;;;;8.22;58.22;101171.44;5446599;32;35293;-68
2023/12/28 04:06:43;;;;;;;;;;;;;;;8.28;58.72;101179.19;5465913;32;35534;-70
2023/12/28 04:09:46;;;;;;;;;;;;;;;7.42;61.63;101172.66;5461837;32;35483;-70
2023/12/28 04:12:48;;;;;;;;;;;;;;;7.79;60.10;101175.63;5463115;32;35354;-73
2023/12/28 04:15:50;;;;;;;;;;;;;;;7.73;59.68;101182.66;5466028;32;34754;-70
2023/12/28 04:18:53;;;;;;;;;;;;;;;7.18;62.11;101180.81;5444371;32;35544;-69
2023/12/28 04:21:55;;;;;;;;;;;;;;;7.73;60.48;101164.34;5466347;32;34925;-71
2023/12/28 04:24:58;;;;;;;;;;;;;;;7.29;61.28;101171.09;5462297;32;34428;-71
2023/12/28 04:28:00;;;;;;;;;;;;;;;6.98;62.52;101171.47;5466325;32;35535;-71
2023/12/28 04:31:06;;;;;;;;;;;;;;;6.87;63.10;101157.66;5442753;32;35177;-69
2023/12/28 04:34:08;;;;;;;;;;;;;;;7.09;61.85;101162.66;5445856;32;34854;-71
2023/12/28 04:37:11;;;;;;;;;;;;;;;7.68;60.06;101155.72;5450659;32;34683;-72
2023/12/28 04:40:14;;;;;;;;;;;;;;;8.22;58.21;101147.88;5441010;32;34766;-70
2023/12/28 04:43:16;;;;;;;;;;;;;;;8.12;57.86;101142.81;5462974;32;34656;-70
2023/12/28 04:46:19;;;;;;;;;;;;;;;7.90;58.63;101146.66;5461154;32;34322;-73
2023/12/28 04:49:21;;;;;;;;;;;;;;;7.65;59.80;101137.44;5466520;32;34745;-71
2023/12/28 04:52:23;;;;;;;;;;;;;;;8.07;57.94;101136.78;5443321;32;35997;-73
2023/12/28 04:55:25;;;;;;;;;;;;;;;8.10;57.80;101139.31;5459681;32;34896;-71
2023/12/28 04:58:28;;;;;;;;;;;;;;;7.72;58.37;101141.69;5465373;32;34765;-72
2023/12/28 05:01:32;;;;;;;;;;;;;;;7.69;58.95;101147.00;5461316;32;35094;-69
2023/12/28 05:04:40;;;;;;;;;;;;;;;7.89;58.30;101139.69;5465830;32;35375;-72
2023/12/28 05:07:43;;;;;;;;;;;;;;;7.70;58.64;101139.09;5460668;32;36206;-71
2023/12/28 05:10:45;;;;;;;;;;;;;;;7.30;60.08;101151.91;5450546;32;35080;-70
2023/12/28 05:13:47;;;;;;;;;;;;;;;7.66;58.87;101160.97;5443867;32;35435;-72
2023/12/28 05:16:49;;;;;;;;;;;;;;;7.92;58.02;101147.50;5459985;32;34408;-72
2023/12/28 05:19:51;;;;;;;;;;;;;;;7.70;58.13;101143.47;5465896;32;35478;-70
2023/12/28 05:22:53;;;;;;;;;;;;;;;6.58;61.53;101151.91;5460436;32;35437;-72
2023/12/28 05:25:56;;;;;;;;;;;;;;;6.29;62.68;101157.41;5446762;32;34334;-70
2023/12/28 05:28:58;;;;;;;;;;;;;;;6.85;60.96;101158.56;5460815;32;34986;-73
2023/12/28 05:32:00;;;;;;;;;;;;;;;7.26;59.51;101164.12;5464275;32;35461;-73
2023/12/28 05:35:03;;;;;;;;;;;;;;;6.82;61.63;101155.97;5462253;32;34607;-73
2023/12/28 05:38:05;;;;;;;;;;;;;;;6.81;61.44;101155.13;5467342;32;34819;-70
2023/12/28 05:41:09;;;;;;;;;;;;;;;6.64;61.70;101151.84;5465528;32;34956;-70
2023/12/28 05:44:11;;;;;;;;;;;;;;;6.57;62.04;101158.87;5460398;32;34463;-72
2023/12/28 05:47:14;;;;;;;;;;;;;;;6.44;62.49;101163.38;5465337;32;34254;-71
2023/12/28 05:50:16;;;;;;;;;;;;;;;7.10;60.39;101162.63;5444905;32;36933;-72
2023/12/28 05:53:19;;;;;;;;;;;;;;;6.49;61.68;101155.47;5460201;32;34427;-70
2023/12/28 05:56:21;;;;;;;;;;;;;;;6.47;61.91;101170.28;5462398;32;35296;-72
2023/12/28 05:59:26;;;;;;;;;;;;;;;6.12;63.18;101173.22;5460473;32;35793;-72
2023/12/28 06:02:28;;;;;;;;;;;;;;;6.60;62.79;101165.81;5464945;32;34982;-69
2023/12/28 06:05:30;;;;;;;;;;;;;;;6.23;63.31;101171.38;5460221;32;34890;-72
2023/12/28 06:08:32;;;;;;;;;;;;;;;6.14;63.63;101163.63;5464809;32;34852;-71
2023/12/28 06:11:34;;;;;;;;;;;;;;;5.84;64.27;101157.72;5459828;32;34312;-69
2023/12/28 06:14:36;;;;;;;;;;;;;;;6.68;62.33;101156.13;5462318;32;34975;-68
2023/12/28 06:17:38;;;;;;;;;;;;;;;6.38;63.09;101171.25;5463027;32;34496;-74
2023/12/28 06:20:40;;;;;;;;;;;;;;;5.83;64.66;101170.78;5460934;32;35372;-69
2023/12/28 06:23:42;;;;;;;;;;;;;;;6.05;64.39;101171.53;5464257;32;34953;-70
2023/12/28 06:26:44;;;;;;;;;;;;;;;5.98;64.48;101176.78;5459769;32;34968;-72
2023/12/28 06:29:46;;;;;;;;;;;;;;;6.02;64.93;101171.56;5466613;32;35217;-72
2023/12/28 06:32:49;;;;;;;;;;;;;;;5.96;64.78;101168.13;5441527;32;35171;-73
2023/12/28 06:35:53;;;;;;;;;;;;;;;5.74;65.17;101170.88;5461695;32;35823;-73
2023/12/28 06:38:54;;;;;;;;;;;;;;;5.33;66.23;101161.53;5475830;32;34875;-69
2023/12/28 06:41:56;;;;;;;;;;;;;;;5.45;65.66;101166.69;5462536;32;34883;-72
2023/12/28 06:44:58;;;;;;;;;;;;;;;5.24;66.86;101179.84;5440361;32;34996;-73
2023/12/28 06:48:00;;;;;;;;;;;;;;;6.03;64.50;101184.59;5461967;32;35386;-69
2023/12/28 06:51:03;;;;;;;;;;;;;;;6.30;63.32;101193.94;5471428;32;34225;-75
2023/12/28 06:54:05;;;;;;;;;;;;;;;5.81;64.27;101206.47;5457809;32;35513;-71
2023/12/28 06:57:07;;;;;;;;;;;;;;;5.91;64.56;101200.34;5465556;32;34726;-69
2023/12/28 07:00:09;;;;;;;;;;;;;;;6.06;64.14;101202.00;5466294;32;34373;-72
2023/12/28 07:03:11;;;;;;;;;;;;;;;6.03;63.85;101204.59;5461656;32;34730;-72
2023/12/28 07:06:13;;;;;;;;;;;;;;;6.30;63.24;101203.50;5466684;32;35506;-72
2023/12/28 07:09:15;;;;;;;;;;;;;;;5.70;65.27;101211.75;5462101;32;34827;-70
2023/12/28 07:12:20;;;;;;;;;;;;;;;5.92;64.62;101200.31;5466318;32;34766;-69
2023/12/28 07:15:22;;;;;;;;;;;;;;;6.61;62.27;101199.75;5462498;32;35111;-72
2023/12/28 07:18:24;;;;;;;;;;;;;;;7.18;60.23;101193.91;5462831;32;34782;-72
2023/12/28 07:21:26;;;;;;;;;;;;;;;6.76;61.04;101194.38;5466286;32;35507;-72
2023/12/28 07:24:28;;;;;;;;;;;;;;;6.24;63.08;101193.97;5461648;32;34838;-72
2023/12/28 07:27:30;;;;;;;;;;;;;;;6.29;64.28;101201.78;5466294;32;35313;-72
2023/12/28 07:30:32;;;;;;;;;;;;;;;6.33;63.84;101188.69;5461854;32;35157;-70
2023/12/28 07:33:34;;;;;;;;;;;;;;;6.40;64.09;101197.34;5466422;32;34975;-71
2023/12/28 07:36:37;;;;;;;;;;;;;;;6.46;63.71;101197.28;5461513;32;35479;-72
2023/12/28 07:39:39;;;;;;;;;;;;;;;7.16;61.09;101204.38;5471421;32;35466;-71
2023/12/28 07:42:41;;;;;;;;;;;;;;;7.45;59.95;101209.22;5445114;32;34830;-70
2023/12/28 07:45:43;;;;;;;;;;;;;;;5.42;66.53;101218.88;5458940;32;34757;-72
2023/12/28 07:48:45;;;;;;;;;;;;;;;5.76;67.11;101216.06;5466516;32;34755;-72
2023/12/28 07:51:48;;;;;;;;;;;;;;;6.24;65.61;101217.47;5458536;32;34249;-69
2023/12/28 07:54:50;;;;;;;;;;;;;;;6.95;62.81;101215.91;5467953;32;35449;-73
2023/12/28 07:57:52;;;;;;;;;;;;;;;5.68;66.55;101214.38;5446121;32;34093;-70
2023/12/28 08:00:54;;;;;;;;;;;;;;;6.64;63.97;101211.94;5458929;32;35113;-71
2023/12/28 08:03:56;;;;;;;;;;;;;;;6.55;63.62;101209.38;5466472;32;34997;-70
2023/12/28 08:06:59;;;;;;;;;;;;;;;6.24;64.83;101207.03;5461833;32;34488;-69
2023/12/28 08:10:01;;;;;;;;;;;;;;;6.32;65.21;101200.03;5466651;32;34977;-73
2023/12/28 08:13:03;;;;;;;;;;;;;;;6.76;63.40;101203.94;5461571;32;34814;-71
2023/12/28 08:16:05;;;;;;;;;;;;;;;6.80;63.35;101213.47;5465950;32;34756;-72
2023/12/28 08:19:08;;;;;;;;;;;;;;;7.19;62.47;101204.31;5461301;32;34585;-73
2023/12/28 08:22:10;;;;;;;;;;;;;;;6.43;63.69;101207.75;5461021;32;34906;-71
2023/12/28 08:25:12;;;;;;;;;;;;;;;6.44;64.15;101199.03;5445773;32;34805;-71
2023/12/28 08:28:14;;;;;;;;;;;;;;;7.05;62.34;101199.28;5443842;32;35353;-71
2023/12/28 08:31:16;;;;;;;;;;;;;;;6.92;62.25;101210.75;5438998;32;35709;-69
2023/12/28 08:34:18;;;;;;;;;;;;;;;6.92;62.92;101207.25;5446935;32;34853;-72
2023/12/28 08:37:21;;;;;;;;;;;;;;;7.29;61.57;101213.81;5469191;32;34914;-70
2023/12/28 08:40:23;;;;;;;;;;;;;;;7.07;61.97;101212.31;5468610;32;35333;-72
2023/12/28 08:43:25;;;;;;;;;;;;;;;7.46;61.28;101216.19;5460612;32;34804;-72
2023/12/28 08:46:27;;;;;;;;;;;;;;;6.53;63.83;101222.47;5465904;32;34260;-70
2023/12/28 08:49:29;;;;;;;;;;;;;;;6.76;63.87;101220.50;5463270;32;34381;-72
2023/12/28 08:52:31;;;;;;;;;;;;;;;7.53;60.50;101214.34;5447026;32;34805;-70
2023/12/28 08:55:33;;;;;;;;;;;;;;;7.26;61.87;101220.81;5459318;32;34525;-70
2023/12/28 08:58:36;;;;;;;;;;;;;;;7.66;60.75;101220.28;5445913;32;34444;-69
2023/12/28 09:01:38;;;;;;;;;;;;;;;6.48;63.88;101225.09;5461741;32;34742;-71
2023/12/28 09:04:40;;;;;;;;;;;;;;;6.89;62.97;101231.69;5460964;32;34865;-69
2023/12/28 09:07:43;;;;;;;;;;;;;;;7.85;60.02;101213.91;5465681;32;35159;-72
2023/12/28 09:10:45;;;;;;;;;;;;;;;7.47;60.21;101204.84;5446236;32;34297;-72
2023/12/28 09:13:47;;;;;;;;;;;;;;;7.58;61.03;101202.06;5465467;32;34288;-73
2023/12/28 09:16:49;;;;;;;;;;;;;;;7.62;60.16;101198.53;5443761;32;34226;-72
2023/12/28 09:19:51;;;;;;;;;;;;;;;8.04;58.82;101198.78;5464894;32;34761;-72
2023/12/28 09:22:56;;;;;;;;;;;;;;;7.73;58.64;101194.03;5461490;32;34986;-70
2023/12/28 09:25:58;;;;;;;;;;;;;;;7.68;59.69;101190.63;5441673;32;35077;-72
2023/12/28 09:29:00;;;;;;;;;;;;;;;8.78;56.39;101191.41;5465630;32;34307;-72
2023/12/28 09:32:02;;;;;;;;;;;;;;;8.53;57.07;101183.16;5461231;32;35577;-72
2023/12/28 09:35:04;;;;;;;;;;;;;;;8.80;56.29;101171.28;5449118;32;34989;-68
2023/12/28 09:38:06;;;;;;;;;;;;;;;8.25;58.85;101166.16;5448214;32;35212;-70
2023/12/28 09:41:12;;;;;;;;;;;;;;;8.63;57.37;101178.59;5464274;32;34851;-70
2023/12/28 09:44:14;;;;;;;;;;;;;;;8.14;58.94;101153.25;5463148;32;36328;-73
2023/12/28 09:47:17;;;;;;;;;;;;;;;7.99;58.76;101150.88;5460649;32;34680;-71
2023/12/28 09:50:19;;;;;;;;;;;;;;;8.15;58.65;101149.72;5464562;32;32572;-71
2023/12/28 09:53:22;;;;;;;;;;;;;;;8.17;59.15;101133.97;5458241;32;35517;-70
2023/12/28 09:56:24;;;;;;;;;;;;;;;9.20;56.10;101132.00;5449484;32;34897;-70
2023/12/28 09:59:31;;;;;;;;;;;;;;;9.13;56.13;101134.78;5447306;32;34501;-74
2023/12/28 10:02:33;;;;;;;;;;;;;;;9.84;54.21;101134.91;5462186;32;35076;-73
2023/12/28 10:05:37;;;;;;;;;;;;;;;9.39;55.21;101123.72;5452576;32;34896;-73
2023/12/28 10:08:44;;;;;;;;;;;;;;;9.02;56.60;101116.69;5447816;32;34696;-71
2023/12/28 10:11:47;;;;;;;;;;;;;;;9.35;56.02;101112.44;5467584;32;35259;-71
2023/12/28 10:14:50;;;;;;;;;;;;;;;9.33;55.43;101095.00;5462496;32;34470;-71
2023/12/28 10:17:52;;;;;;;;;;;;;;;9.98;54.20;101096.06;5467636;32;35501;-73
2023/12/28 10:20:54;;;;;;;;;;;;;;;10.47;52.29;101088.69;5463166;32;35071;-72
2023/12/28 10:23:56;;;;;;;;;;;;;;;10.10;53.31;101091.37;5462878;32;34606;-72
2023/12/28 10:26:58;;;;;;;;;;;;;;;9.50;54.67;101085.00;5452751;32;34568;-73
2023/12/28 10:30:00;;;;;;;;;;;;;;;9.40;55.75;101086.09;5462295;32;34286;-71
2023/12/28 10:33:05;;;;;;;;;;;;;;;9.65;55.49;101081.13;5467738;32;35020;-70
2023/12/28 10:36:08;;;;;;;;;;;;;;;9.66;55.01;101083.75;5462396;32;34977;-70
2023/12/28 10:39:13;;;;;;;;;;;;;;;9.73;55.10;101084.44;5454094;32;34725;-72
2023/12/28 10:42:17;;;;;;;;;;;;;;;9.97;55.04;101085.56;5447909;32;34237;-73
2023/12/28 10:45:21;;;;;;;;;;;;;;;10.27;54.15;101066.44;5448550;32;34699;-70
2023/12/28 10:48:30;;;;;;;;;;;;;;;10.86;52.14;101068.28;5466909;32;34537;-72
2023/12/28 10:51:34;;;;;;;;;;;;;;;10.26;53.89;101058.59;5448780;32;35346;-74
2023/12/28 10:54:47;;;;;;;;;;;;;;;10.11;54.66;101065.09;5466547;32;34562;-73
2023/12/28 10:57:49;;;;;;;;;;;;;;;10.33;54.41;101051.41;5441192;32;34688;-70
2023/12/28 11:00:54;;;;;;;;;;;;;;;10.56;53.52;101051.59;5460050;32;34194;-71
2023/12/28 11:04:05;;;;;;;;;;;;;;;11.07;51.88;101043.94;5448273;32;35102;-72
2023/12/28 11:07:07;;;;;;;;;;;;;;;11.01;51.70;101045.91;5461360;32;35447;-72
2023/12/28 11:10:10;;;;;;;;;;;;;;;10.77;52.80;101029.13;5467217;32;34789;-73
2023/12/28 11:13:12;;;;;;;;;;;;;;;10.05;54.98;101025.88;5438151;32;34261;-70
2023/12/28 11:16:14;;;;;;;;;;;;;;;10.74;53.47;101019.53;5450147;32;34502;-71
2023/12/28 11:19:18;;;;;;;;;;;;;;;10.57;53.83;101014.78;5462704;32;34737;-73
2023/12/28 11:22:23;;;;;;;;;;;;;;;10.46;53.79;101023.87;5461011;32;35897;-69
2023/12/28 11:25:24;;;;;;;;;;;;;;;11.38;51.81;101012.28;5452746;32;34787;-71
2023/12/28 11:28:27;;;;;;;;;;;;;;;11.57;51.35;101006.41;5441533;32;34270;-71
2023/12/28 11:31:32;;;;;;;;;;;;;;;11.61;51.14;101013.31;5465230;32;34578;-71
2023/12/28 11:34:35;;;;;;;;;;;;;;;12.20;48.84;100995.44;5448365;32;34867;-70
2023/12/28 11:37:39;;;;;;;;;;;;;;;12.66;48.25;100998.16;5471448;32;34918;-73
2023/12/28 11:40:42;;;;;;;;;;;;;;;12.45;48.35;100997.19;5453154;32;34139;-72
2023/12/28 11:43:51;;;;;;;;;;;;;;;13.04;46.91;100994.03;5440395;32;35170;-70
2023/12/28 11:46:53;;;;;;;;;;;;;;;13.89;44.81;100981.72;5450107;32;35167;-70
2023/12/28 11:49:55;;;;;;;;;;;;;;;13.38;45.97;100977.72;5455152;32;34844;-73
2023/12/28 11:52:57;;;;;;;;;;;;;;;13.20;46.84;100965.22;5461554;32;35016;-74
2023/12/28 11:56:03;;;;;;;;;;;;;;;14.66;43.77;100951.84;5463026;32;34871;-72
2023/12/28 11:59:07;;;;;;;;;;;;;;;15.30;41.47;100943.44;5447326;32;34064;-70
2023/12/28 12:02:10;;;;;;;;;;;;;;;16.38;39.53;100936.97;5464707;32;35241;-74
2023/12/28 12:05:14;;;;;;;;;;;;;;;16.24;39.61;100935.06;5443196;32;34855;-73
2023/12/28 12:08:16;;;;;;;;;;;;;;;17.62;37.10;100914.78;5466858;32;35988;-71
2023/12/28 12:11:18;;;;;;;;;;;;;;;19.26;34.15;100928.44;5462118;32;35276;-72
2023/12/28 12:14:20;;;;;;;;;;;;;;;20.58;32.01;100925.50;5451149;32;34698;-73
2023/12/28 12:17:22;;;;;;;;;;;;;;;20.60;31.17;100923.56;5461061;32;35038;-71
2023/12/28 12:20:24;;;;;;;;;;;;;;;20.16;32.31;100920.44;5463749;32;35261;-74
2023/12/28 12:23:26;;;;;;;;;;;;;;;22.05;29.09;100902.75;5464945;32;34513;-71
2023/12/28 12:26:30;;;;;;;;;;;;;;;19.69;32.50;100905.06;5461168;32;35398;-71
2023/12/28 12:29:32;;;;;;;;;;;;;;;19.96;32.73;100903.12;5466574;32;34874;-73
2023/12/28 12:32:37;;;;;;;;;;;;;;;20.15;32.09;100916.03;5462000;32;35202;-73
2023/12/28 12:35:39;;;;;;;;;;;;;;;20.29;31.64;100917.75;5466247;32;35867;-74
2023/12/28 12:38:41;;;;;;;;;;;;;;;20.53;31.32;100910.66;5442360;32;35054;-71
2023/12/28 12:41:45;;;;;;;;;;;;;;;21.13;30.37;100897.41;5460705;32;34903;-75
2023/12/28 12:44:47;;;;;;;;;;;;;;;20.35;31.40;100893.28;5446453;32;34337;-72
2023/12/28 12:47:50;;;;;;;;;;;;;;;19.89;31.81;100911.69;5458054;32;35162;-71
2023/12/28 12:50:52;;;;;;;;;;;;;;;18.56;34.56;100917.88;5437405;32;34734;-70
2023/12/28 12:54:00;;;;;;;;;;;;;;;17.68;36.30;100919.75;5458759;32;34284;-72
2023/12/28 12:57:02;;;;;;;;;;;;;;;18.16;35.87;100909.72;5451498;32;35100;-73
2023/12/28 13:00:08;;;;;;;;;;;;;;;21.34;30.29;100888.63;5462213;32;36023;-73
2023/12/28 13:03:10;;;;;;;;;;;;;;;20.76;30.71;100905.47;5461186;32;35563;-71
2023/12/28 13:06:12;;;;;;;;;;;;;;;16.21;37.77;100913.97;5465235;32;34443;-70
2023/12/28 13:09:14;;;;;;;;;;;;;;;15.08;41.02;100911.91;5460969;32;34351;-70
2023/12/28 13:12:17;;;;;;;;;;;;;;;14.56;42.46;100909.13;5450299;32;35346;-70
2023/12/28 13:15:19;;;;;;;;;;;;;;;14.40;42.97;100902.78;5461420;32;35026;-71
2023/12/28 13:18:21;;;;;;;;;;;;;;;14.30;43.49;100907.66;5464597;32;35067;-73
2023/12/28 13:21:23;;;;;;;;;;;;;;;14.49;43.30;100897.97;5461899;32;34400;-70
2023/12/28 13:24:25;;;;;;;;;;;;;;;13.16;46.23;100892.41;5461437;32;35421;-70
2023/12/28 13:27:28;;;;;;;;;;;;;;;10.85;53.15;100917.53;5465284;32;35463;-70
2023/12/28 13:30:30;;;;;;;;;;;;;;;11.57;51.90;100915.13;5461487;32;35439;-72
2023/12/28 13:33:32;;;;;;;;;;;;;;;12.18;50.17;100914.75;5464696;32;35040;-74
2023/12/28 13:36:35;;;;;;;;;;;;;;;11.97;50.89;100910.25;5460016;32;34983;-72
2023/12/28 13:39:38;;;;;;;;;;;;;;;12.48;49.75;100918.81;5449419;32;34584;-70
2023/12/28 13:42:41;;;;;;;;;;;;;;;11.89;51.08;100927.19;5462335;32;35153;-72
2023/12/28 13:45:43;;;;;;;;;;;;;;;11.12;53.43;100926.28;5439563;32;35246;-70
2023/12/28 13:48:45;;;;;;;;;;;;;;;10.50;55.26;100917.78;5450700;32;34802;-70
2023/12/28 13:51:47;;;;;;;;;;;;;;;11.03;54.44;100916.06;5440605;32;35567;-74
2023/12/28 13:54:49;;;;;;;;;;;;;;;11.21;53.94;100933.03;5466964;32;34570;-70
2023/12/28 13:57:51;;;;;;;;;;;;;;;10.67;55.71;100939.13;5466487;32;35141;-70
2023/12/28 14:00:53;;;;;;;;;;;;;;;11.13;54.89;100942.94;5443195;32;35012;-69
2023/12/28 14:03:56;;;;;;;;;;;;;;;11.88;53.24;100933.38;5462884;32;35176;-73
2023/12/28 14:06:58;;;;;;;;;;;;;;;13.18;49.69;100909.03;5446038;32;34963;-73
2023/12/28 14:10:01;;;;;;;;;;;;;;;14.43;45.82;100911.44;5464997;32;35746;-71
2023/12/28 14:13:05;;;;;;;;;;;;;;;14.82;44.47;100907.87;5459818;32;35072;-73
2023/12/28 14:16:08;;;;;;;;;;;;;;;14.96;44.11;100908.06;5464857;32;35083;-73
2023/12/28 14:19:10;;;;;;;;;;;;;;;13.61;46.76;100904.59;5460601;32;34895;-73
2023/12/28 14:22:13;;;;;;;;;;;;;;;12.84;48.64;100913.03;5461499;32;34839;-70
2023/12/28 14:25:15;;;;;;;;;;;;;;;12.60;49.54;100906.09;5448791;32;35470;-73
2023/12/28 14:28:17;;;;;;;;;;;;;;;12.14;51.10;100905.22;5459981;32;34389;-70
2023/12/28 14:31:20;;;;;;;;;;;;;;;12.88;49.37;100916.41;5464068;32;34636;-70
2023/12/28 14:34:22;;;;;;;;;;;;;;;12.36;50.79;100919.28;5459897;32;34839;-69
2023/12/28 14:37:24;;;;;;;;;;;;;;;12.34;50.95;100931.69;5468343;32;34473;-72
2023/12/28 14:40:26;;;;;;;;;;;;;;;11.91;52.33;100933.28;5452548;32;34348;-73
2023/12/28 14:43:28;;;;;;;;;;;;;;;11.22;54.38;100940.00;5461457;32;34382;-74
2023/12/28 14:46:30;;;;;;;;;;;;;;;10.94;55.64;100941.81;5462653;32;35264;-70
2023/12/28 14:49:32;;;;;;;;;;;;;;;11.19;55.09;100948.00;5460516;32;35467;-73
2023/12/28 14:52:34;;;;;;;;;;;;;;;10.99;56.03;100953.03;5449689;32;34868;-74
2023/12/28 14:55:36;;;;;;;;;;;;;;;11.02;56.04;100952.97;5468309;32;35001;-73
2023/12/28 14:58:39;;;;;;;;;;;;;;;11.04;56.16;100945.87;5466850;32;35214;-71
2023/12/28 15:01:41;;;;;;;;;;;;;;;11.07;56.00;100959.75;5461803;32;34992;-70
2023/12/28 15:04:43;;;;;;;;;;;;;;;10.78;57.29;100947.56;5452651;32;35414;-70
2023/12/28 15:07:45;;;;;;;;;;;;;;;10.93;57.07;100932.19;5466384;32;35017;-72
2023/12/28 15:10:47;;;;;;;;;;;;;;;11.31;56.13;100928.31;5430225;32;34585;-70
2023/12/28 15:13:50;;;;;;;;;;;;;;;11.19;56.51;100926.94;5466555;32;34803;-70
2023/12/28 15:16:52;;;;;;;;;;;;;;;11.44;55.77;100923.50;5460239;32;35132;-73
2023/12/28 15:19:54;;;;;;;;;;;;;;;11.00;56.78;100921.41;5467640;32;34989;-73
2023/12/28 15:22:57;;;;;;;;;;;;;;;11.28;56.44;100929.28;5462348;32;34201;-73
2023/12/28 15:25:59;;;;;;;;;;;;;;;10.75;57.89;100928.37;5463750;32;34973;-72
2023/12/28 15:29:00;;;;;;;;;;;;;;;10.64;58.75;100928.72;5449328;32;35645;-71
2023/12/28 15:32:03;;;;;;;;;;;;;;;11.02;57.65;100931.91;5462090;32;33740;-71
2023/12/28 15:35:06;;;;;;;;;;;;;;;11.15;57.31;100940.28;5467194;32;34827;-69
2023/12/28 15:38:08;;;;;;;;;;;;;;;10.91;58.04;100931.41;5462977;32;35050;-73
2023/12/28 15:41:10;;;;;;;;;;;;;;;11.13;57.44;100920.09;5466846;32;34973;-71
2023/12/28 15:44:14;;;;;;;;;;;;;;;10.79;58.56;100911.59;5461749;32;34415;-73